sensor_id;sensor_type;location;lat;lon;timestamp;P1;durP1;ratioP1;P2;durP2;ratioP2
3343;SDS011;1685;53.104;8.228;2022-10-16T00:02:10;3.40;;;3.10;;
3343;SDS011;1685;53.104;8.228;2022-10-16T00:04:37;4.40;;;3.50;;
3343;SDS011;1685;53.104;8.228;2022-10-16T00:07:03;5.73;;;2.90;;
3343;SDS011;1685;53.104;8.228;2022-10-16T00:09:31;5.83;;;3.33;;
3343;SDS011;1685;53.104;8.228;2022-10-16T00:11:58;3.93;;;3.40;;
3343;SDS011;1685;53.104;8.228;2022-10-16T00:14:25;8.73;;;3.20;;
3343;SDS011;1685;53.104;8.228;2022-10-16T00:16:51;5.03;;;3.87;;
3343;SDS011;1685;53.104;8.228;2022-10-16T00:19:18;3.77;;;2.70;;
3343;SDS011;1685;53.104;8.228;2022-10-16T00:21:45;7.60;;;3.50;;
3343;SDS011;1685;53.104;8.228;2022-10-16T00:24:11;11.60;;;3.10;;
3343;SDS011;1685;53.104;8.228;2022-10-16T00:26:39;2.97;;;2.67;;
3343;SDS011;1685;53.104;8.228;2022-10-16T00:29:07;4.97;;;3.00;;
3343;SDS011;1685;53.104;8.228;2022-10-16T00:31:34;9.23;;;3.10;;
3343;SDS011;1685;53.104;8.228;2022-10-16T00:34:01;4.77;;;2.87;;
3343;SDS011;1685;53.104;8.228;2022-10-16T00:36:28;5.90;;;2.90;;
3343;SDS011;1685;53.104;8.228;2022-10-16T00:38:56;3.10;;;2.80;;
3343;SDS011;1685;53.104;8.228;2022-10-16T00:41:25;2.83;;;2.50;;
3343;SDS011;1685;53.104;8.228;2022-10-16T00:43:54;3.97;;;2.53;;
3343;SDS011;1685;53.104;8.228;2022-10-16T00:46:22;12.20;;;3.37;;
3343;SDS011;1685;53.104;8.228;2022-10-16T00:48:52;6.20;;;2.70;;
3343;SDS011;1685;53.104;8.228;2022-10-16T00:51:24;4.30;;;2.80;;
3343;SDS011;1685;53.104;8.228;2022-10-16T00:53:55;3.77;;;2.93;;
3343;SDS011;1685;53.104;8.228;2022-10-16T00:56:23;10.00;;;3.47;;
3343;SDS011;1685;53.104;8.228;2022-10-16T00:58:50;4.40;;;2.70;;
3343;SDS011;1685;53.104;8.228;2022-10-16T01:01:18;5.90;;;3.10;;
3343;SDS011;1685;53.104;8.228;2022-10-16T01:03:44;3.97;;;3.53;;
3343;SDS011;1685;53.104;8.228;2022-10-16T01:06:24;2.83;;;2.60;;
3343;SDS011;1685;53.104;8.228;2022-10-16T01:09:03;4.87;;;3.20;;
3343;SDS011;1685;53.104;8.228;2022-10-16T01:11:38;11.20;;;2.80;;
3343;SDS011;1685;53.104;8.228;2022-10-16T01:14:15;10.50;;;2.90;;
3343;SDS011;1685;53.104;8.228;2022-10-16T01:16:50;9.80;;;3.10;;
3343;SDS011;1685;53.104;8.228;2022-10-16T01:19:24;10.07;;;2.80;;
3343;SDS011;1685;53.104;8.228;2022-10-16T01:22:02;4.03;;;2.90;;
3343;SDS011;1685;53.104;8.228;2022-10-16T01:24:31;6.73;;;3.03;;
3343;SDS011;1685;53.104;8.228;2022-10-16T01:27:09;4.93;;;3.03;;
3343;SDS011;1685;53.104;8.228;2022-10-16T01:29:39;8.03;;;2.73;;
3343;SDS011;1685;53.104;8.228;2022-10-16T01:32:15;7.10;;;3.23;;
3343;SDS011;1685;53.104;8.228;2022-10-16T01:34:47;5.90;;;3.30;;
3343;SDS011;1685;53.104;8.228;2022-10-16T01:37:18;10.20;;;3.37;;
3343;SDS011;1685;53.104;8.228;2022-10-16T01:39:54;3.40;;;2.80;;
3343;SDS011;1685;53.104;8.228;2022-10-16T01:42:27;3.00;;;2.70;;
3343;SDS011;1685;53.104;8.228;2022-10-16T01:44:57;3.60;;;2.43;;
3343;SDS011;1685;53.104;8.228;2022-10-16T01:47:25;3.70;;;2.47;;
3343;SDS011;1685;53.104;8.228;2022-10-16T01:49:56;4.20;;;2.80;;
3343;SDS011;1685;53.104;8.228;2022-10-16T01:52:23;3.30;;;3.00;;
3343;SDS011;1685;53.104;8.228;2022-10-16T01:54:55;10.60;;;2.93;;
3343;SDS011;1685;53.104;8.228;2022-10-16T01:57:24;4.03;;;3.20;;
3343;SDS011;1685;53.104;8.228;2022-10-16T01:59:53;3.00;;;2.67;;
3343;SDS011;1685;53.104;8.228;2022-10-16T02:02:24;11.33;;;3.80;;
3343;SDS011;1685;53.104;8.228;2022-10-16T02:04:55;4.03;;;2.67;;
3343;SDS011;1685;53.104;8.228;2022-10-16T02:07:27;5.67;;;3.00;;
3343;SDS011;1685;53.104;8.228;2022-10-16T02:09:54;6.27;;;3.00;;
3343;SDS011;1685;53.104;8.228;2022-10-16T02:12:23;11.17;;;3.63;;
3343;SDS011;1685;53.104;8.228;2022-10-16T02:14:53;4.83;;;3.10;;
3343;SDS011;1685;53.104;8.228;2022-10-16T02:17:21;4.40;;;2.33;;
3343;SDS011;1685;53.104;8.228;2022-10-16T02:19:48;7.00;;;2.63;;
3343;SDS011;1685;53.104;8.228;2022-10-16T02:22:20;7.80;;;3.00;;
3343;SDS011;1685;53.104;8.228;2022-10-16T02:24:54;5.27;;;2.60;;
3343;SDS011;1685;53.104;8.228;2022-10-16T02:27:25;4.80;;;2.43;;
3343;SDS011;1685;53.104;8.228;2022-10-16T02:29:59;4.63;;;2.77;;
3343;SDS011;1685;53.104;8.228;2022-10-16T02:32:32;7.30;;;2.80;;
3343;SDS011;1685;53.104;8.228;2022-10-16T02:35:00;4.33;;;2.43;;
3343;SDS011;1685;53.104;8.228;2022-10-16T02:37:28;4.30;;;2.47;;
3343;SDS011;1685;53.104;8.228;2022-10-16T02:39:56;5.20;;;2.60;;
3343;SDS011;1685;53.104;8.228;2022-10-16T02:42:27;3.87;;;2.37;;
3343;SDS011;1685;53.104;8.228;2022-10-16T02:44:55;2.63;;;1.80;;
3343;SDS011;1685;53.104;8.228;2022-10-16T02:47:23;6.13;;;2.50;;
3343;SDS011;1685;53.104;8.228;2022-10-16T02:49:50;4.67;;;2.60;;
3343;SDS011;1685;53.104;8.228;2022-10-16T02:52:17;2.30;;;2.10;;
3343;SDS011;1685;53.104;8.228;2022-10-16T02:54:44;10.67;;;2.60;;
3343;SDS011;1685;53.104;8.228;2022-10-16T02:57:10;2.73;;;2.30;;
3343;SDS011;1685;53.104;8.228;2022-10-16T02:59:37;9.03;;;2.47;;
3343;SDS011;1685;53.104;8.228;2022-10-16T03:02:04;2.20;;;2.00;;
3343;SDS011;1685;53.104;8.228;2022-10-16T03:04:32;2.97;;;2.63;;
3343;SDS011;1685;53.104;8.228;2022-10-16T03:06:59;4.77;;;2.53;;
3343;SDS011;1685;53.104;8.228;2022-10-16T03:09:26;8.23;;;2.50;;
3343;SDS011;1685;53.104;8.228;2022-10-16T03:11:52;5.00;;;2.83;;
3343;SDS011;1685;53.104;8.228;2022-10-16T03:14:19;4.43;;;2.60;;
3343;SDS011;1685;53.104;8.228;2022-10-16T03:16:46;3.33;;;2.20;;
3343;SDS011;1685;53.104;8.228;2022-10-16T03:19:13;5.50;;;2.10;;
3343;SDS011;1685;53.104;8.228;2022-10-16T03:21:41;5.60;;;3.03;;
3343;SDS011;1685;53.104;8.228;2022-10-16T03:24:07;5.13;;;2.63;;
3343;SDS011;1685;53.104;8.228;2022-10-16T03:26:34;4.30;;;3.30;;
3343;SDS011;1685;53.104;8.228;2022-10-16T03:29:01;4.57;;;3.00;;
3343;SDS011;1685;53.104;8.228;2022-10-16T03:31:28;2.80;;;2.60;;
3343;SDS011;1685;53.104;8.228;2022-10-16T03:33:55;8.70;;;3.60;;
3343;SDS011;1685;53.104;8.228;2022-10-16T03:36:22;8.03;;;3.00;;
3343;SDS011;1685;53.104;8.228;2022-10-16T03:38:50;3.80;;;3.50;;
3343;SDS011;1685;53.104;8.228;2022-10-16T03:41:17;4.43;;;4.00;;
3343;SDS011;1685;53.104;8.228;2022-10-16T03:43:43;4.10;;;3.10;;
3343;SDS011;1685;53.104;8.228;2022-10-16T03:46:10;5.20;;;3.73;;
3343;SDS011;1685;53.104;8.228;2022-10-16T03:48:37;3.77;;;3.47;;
3343;SDS011;1685;53.104;8.228;2022-10-16T03:51:04;7.13;;;3.60;;
3343;SDS011;1685;53.104;8.228;2022-10-16T03:53:31;15.13;;;5.17;;
3343;SDS011;1685;53.104;8.228;2022-10-16T03:55:59;5.53;;;4.40;;
3343;SDS011;1685;53.104;8.228;2022-10-16T03:58:26;10.50;;;4.40;;
3343;SDS011;1685;53.104;8.228;2022-10-16T04:00:53;11.23;;;4.70;;
3343;SDS011;1685;53.104;8.228;2022-10-16T04:03:19;6.40;;;4.40;;
3343;SDS011;1685;53.104;8.228;2022-10-16T04:05:46;6.80;;;4.13;;
3343;SDS011;1685;53.104;8.228;2022-10-16T04:08:13;9.20;;;6.13;;
3343;SDS011;1685;53.104;8.228;2022-10-16T04:10:40;14.93;;;5.63;;
3343;SDS011;1685;53.104;8.228;2022-10-16T04:13:09;6.30;;;5.63;;
3343;SDS011;1685;53.104;8.228;2022-10-16T04:15:36;9.80;;;5.47;;
3343;SDS011;1685;53.104;8.228;2022-10-16T04:18:03;6.33;;;5.40;;
3343;SDS011;1685;53.104;8.228;2022-10-16T04:20:30;12.07;;;6.03;;
3343;SDS011;1685;53.104;8.228;2022-10-16T04:22:56;11.70;;;6.50;;
3343;SDS011;1685;53.104;8.228;2022-10-16T04:25:23;9.70;;;5.67;;
3343;SDS011;1685;53.104;8.228;2022-10-16T04:27:52;17.70;;;7.03;;
3343;SDS011;1685;53.104;8.228;2022-10-16T04:30:20;12.03;;;8.07;;
3343;SDS011;1685;53.104;8.228;2022-10-16T04:32:47;8.80;;;6.33;;
3343;SDS011;1685;53.104;8.228;2022-10-16T04:35:14;8.57;;;7.23;;
3343;SDS011;1685;53.104;8.228;2022-10-16T04:37:41;10.00;;;7.53;;
3343;SDS011;1685;53.104;8.228;2022-10-16T04:40:08;22.23;;;8.57;;
3343;SDS011;1685;53.104;8.228;2022-10-16T04:42:35;10.50;;;8.40;;
3343;SDS011;1685;53.104;8.228;2022-10-16T04:45:02;13.40;;;8.77;;
3343;SDS011;1685;53.104;8.228;2022-10-16T04:47:31;12.03;;;9.50;;
3343;SDS011;1685;53.104;8.228;2022-10-16T04:49:57;12.43;;;8.27;;
3343;SDS011;1685;53.104;8.228;2022-10-16T04:52:27;18.83;;;7.87;;
3343;SDS011;1685;53.104;8.228;2022-10-16T04:54:54;11.00;;;8.40;;
3343;SDS011;1685;53.104;8.228;2022-10-16T04:57:25;10.00;;;8.90;;
3343;SDS011;1685;53.104;8.228;2022-10-16T04:59:52;13.93;;;8.77;;
3343;SDS011;1685;53.104;8.228;2022-10-16T05:02:18;15.00;;;8.70;;
3343;SDS011;1685;53.104;8.228;2022-10-16T05:04:47;14.63;;;9.90;;
3343;SDS011;1685;53.104;8.228;2022-10-16T05:07:13;16.00;;;9.93;;
3343;SDS011;1685;53.104;8.228;2022-10-16T05:09:40;15.00;;;9.57;;
3343;SDS011;1685;53.104;8.228;2022-10-16T05:12:07;13.90;;;9.40;;
3343;SDS011;1685;53.104;8.228;2022-10-16T05:14:34;15.73;;;9.37;;
3343;SDS011;1685;53.104;8.228;2022-10-16T05:17:01;16.10;;;9.60;;
3343;SDS011;1685;53.104;8.228;2022-10-16T05:19:27;16.43;;;9.70;;
3343;SDS011;1685;53.104;8.228;2022-10-16T05:21:55;14.50;;;10.70;;
3343;SDS011;1685;53.104;8.228;2022-10-16T05:24:22;15.63;;;9.73;;
3343;SDS011;1685;53.104;8.228;2022-10-16T05:26:49;17.77;;;9.57;;
3343;SDS011;1685;53.104;8.228;2022-10-16T05:29:16;14.73;;;9.77;;
3343;SDS011;1685;53.104;8.228;2022-10-16T05:31:43;16.60;;;9.90;;
3343;SDS011;1685;53.104;8.228;2022-10-16T05:34:09;12.87;;;9.80;;
3343;SDS011;1685;53.104;8.228;2022-10-16T05:36:36;19.13;;;10.07;;
3343;SDS011;1685;53.104;8.228;2022-10-16T05:39:04;14.40;;;11.53;;
3343;SDS011;1685;53.104;8.228;2022-10-16T05:41:31;13.23;;;9.23;;
3343;SDS011;1685;53.104;8.228;2022-10-16T05:43:58;14.40;;;9.53;;
3343;SDS011;1685;53.104;8.228;2022-10-16T05:46:24;17.30;;;10.20;;
3343;SDS011;1685;53.104;8.228;2022-10-16T05:48:51;17.50;;;10.13;;
3343;SDS011;1685;53.104;8.228;2022-10-16T05:51:18;14.33;;;10.73;;
3343;SDS011;1685;53.104;8.228;2022-10-16T05:53:45;13.87;;;10.23;;
3343;SDS011;1685;53.104;8.228;2022-10-16T05:56:13;14.13;;;9.73;;
3343;SDS011;1685;53.104;8.228;2022-10-16T05:58:41;12.17;;;9.10;;
3343;SDS011;1685;53.104;8.228;2022-10-16T06:01:10;15.13;;;11.00;;
3343;SDS011;1685;53.104;8.228;2022-10-16T06:03:38;15.77;;;10.30;;
3343;SDS011;1685;53.104;8.228;2022-10-16T06:06:08;14.53;;;10.53;;
3343;SDS011;1685;53.104;8.228;2022-10-16T06:08:37;13.80;;;9.70;;
3343;SDS011;1685;53.104;8.228;2022-10-16T06:11:05;15.27;;;10.93;;
3343;SDS011;1685;53.104;8.228;2022-10-16T06:13:34;14.40;;;9.90;;
3343;SDS011;1685;53.104;8.228;2022-10-16T06:16:01;14.70;;;9.93;;
3343;SDS011;1685;53.104;8.228;2022-10-16T06:18:29;13.80;;;10.27;;
3343;SDS011;1685;53.104;8.228;2022-10-16T06:20:56;17.43;;;11.23;;
3343;SDS011;1685;53.104;8.228;2022-10-16T06:23:23;11.83;;;9.37;;
3343;SDS011;1685;53.104;8.228;2022-10-16T06:25:50;13.50;;;9.43;;
3343;SDS011;1685;53.104;8.228;2022-10-16T06:28:17;17.17;;;9.93;;
3343;SDS011;1685;53.104;8.228;2022-10-16T06:30:46;11.27;;;10.07;;
3343;SDS011;1685;53.104;8.228;2022-10-16T06:33:12;20.30;;;9.90;;
3343;SDS011;1685;53.104;8.228;2022-10-16T06:35:39;12.17;;;9.40;;
3343;SDS011;1685;53.104;8.228;2022-10-16T06:38:06;14.43;;;9.80;;
3343;SDS011;1685;53.104;8.228;2022-10-16T06:40:32;18.53;;;9.40;;
3343;SDS011;1685;53.104;8.228;2022-10-16T06:42:59;13.27;;;10.40;;
3343;SDS011;1685;53.104;8.228;2022-10-16T06:45:26;15.67;;;8.73;;
3343;SDS011;1685;53.104;8.228;2022-10-16T06:47:54;14.27;;;9.10;;
3343;SDS011;1685;53.104;8.228;2022-10-16T06:50:21;14.63;;;8.90;;
3343;SDS011;1685;53.104;8.228;2022-10-16T06:52:47;14.53;;;10.03;;
3343;SDS011;1685;53.104;8.228;2022-10-16T06:55:14;11.87;;;8.63;;
3343;SDS011;1685;53.104;8.228;2022-10-16T06:57:42;14.60;;;9.70;;
3343;SDS011;1685;53.104;8.228;2022-10-16T07:00:09;11.97;;;8.60;;
3343;SDS011;1685;53.104;8.228;2022-10-16T07:02:36;16.93;;;8.50;;
3343;SDS011;1685;53.104;8.228;2022-10-16T07:05:04;19.40;;;9.20;;
3343;SDS011;1685;53.104;8.228;2022-10-16T07:07:31;13.30;;;8.60;;
3343;SDS011;1685;53.104;8.228;2022-10-16T07:09:57;14.07;;;9.50;;
3343;SDS011;1685;53.104;8.228;2022-10-16T07:12:24;11.10;;;8.37;;
3343;SDS011;1685;53.104;8.228;2022-10-16T07:14:51;9.47;;;7.17;;
3343;SDS011;1685;53.104;8.228;2022-10-16T07:17:19;11.90;;;7.33;;
3343;SDS011;1685;53.104;8.228;2022-10-16T07:19:46;12.93;;;8.37;;
3343;SDS011;1685;53.104;8.228;2022-10-16T07:22:15;8.60;;;7.67;;
3343;SDS011;1685;53.104;8.228;2022-10-16T07:24:41;9.50;;;7.20;;
3343;SDS011;1685;53.104;8.228;2022-10-16T07:27:09;9.30;;;6.60;;
3343;SDS011;1685;53.104;8.228;2022-10-16T07:29:36;13.10;;;7.17;;
3343;SDS011;1685;53.104;8.228;2022-10-16T07:32:02;10.40;;;6.83;;
3343;SDS011;1685;53.104;8.228;2022-10-16T07:34:29;10.37;;;7.27;;
3343;SDS011;1685;53.104;8.228;2022-10-16T07:36:56;11.50;;;6.37;;
3343;SDS011;1685;53.104;8.228;2022-10-16T07:39:24;7.10;;;6.40;;
3343;SDS011;1685;53.104;8.228;2022-10-16T07:41:51;9.53;;;6.37;;
3343;SDS011;1685;53.104;8.228;2022-10-16T07:44:17;21.47;;;5.57;;
3343;SDS011;1685;53.104;8.228;2022-10-16T07:46:44;7.33;;;5.47;;
3343;SDS011;1685;53.104;8.228;2022-10-16T07:49:11;10.80;;;5.60;;
3343;SDS011;1685;53.104;8.228;2022-10-16T07:51:37;11.63;;;4.93;;
3343;SDS011;1685;53.104;8.228;2022-10-16T07:54:04;6.90;;;4.60;;
3343;SDS011;1685;53.104;8.228;2022-10-16T07:56:33;6.87;;;5.37;;
3343;SDS011;1685;53.104;8.228;2022-10-16T07:58:59;3.83;;;3.53;;
3343;SDS011;1685;53.104;8.228;2022-10-16T08:01:26;12.27;;;4.43;;
3343;SDS011;1685;53.104;8.228;2022-10-16T08:03:53;4.20;;;3.80;;
3343;SDS011;1685;53.104;8.228;2022-10-16T08:06:20;6.27;;;3.67;;
3343;SDS011;1685;53.104;8.228;2022-10-16T08:08:47;5.77;;;3.10;;
3343;SDS011;1685;53.104;8.228;2022-10-16T08:11:15;3.37;;;3.03;;
3343;SDS011;1685;53.104;8.228;2022-10-16T08:13:43;3.90;;;2.80;;
3343;SDS011;1685;53.104;8.228;2022-10-16T08:16:09;6.10;;;3.50;;
3343;SDS011;1685;53.104;8.228;2022-10-16T08:18:37;3.67;;;3.30;;
3343;SDS011;1685;53.104;8.228;2022-10-16T08:21:05;3.33;;;3.13;;
3343;SDS011;1685;53.104;8.228;2022-10-16T08:23:33;3.47;;;3.10;;
3343;SDS011;1685;53.104;8.228;2022-10-16T08:26:02;6.40;;;2.70;;
3343;SDS011;1685;53.104;8.228;2022-10-16T08:28:30;8.50;;;3.37;;
3343;SDS011;1685;53.104;8.228;2022-10-16T08:31:05;3.03;;;2.67;;
3343;SDS011;1685;53.104;8.228;2022-10-16T08:33:33;3.13;;;2.70;;
3343;SDS011;1685;53.104;8.228;2022-10-16T08:36:00;7.07;;;3.27;;
3343;SDS011;1685;53.104;8.228;2022-10-16T08:38:27;4.50;;;2.50;;
3343;SDS011;1685;53.104;8.228;2022-10-16T08:40:55;7.77;;;3.63;;
3343;SDS011;1685;53.104;8.228;2022-10-16T08:46:24;2.60;;;2.40;;
3343;SDS011;1685;53.104;8.228;2022-10-16T08:49:00;4.33;;;2.00;;
3343;SDS011;1685;53.104;8.228;2022-10-16T08:51:29;6.20;;;2.60;;
3343;SDS011;1685;53.104;8.228;2022-10-16T08:53:58;7.27;;;1.90;;
3343;SDS011;1685;53.104;8.228;2022-10-16T08:56:28;5.10;;;1.90;;
3343;SDS011;1685;53.104;8.228;2022-10-16T08:58:55;5.57;;;2.37;;
3343;SDS011;1685;53.104;8.228;2022-10-16T09:01:32;8.37;;;2.00;;
3343;SDS011;1685;53.104;8.228;2022-10-16T09:04:19;4.47;;;2.30;;
3343;SDS011;1685;53.104;8.228;2022-10-16T09:07:13;7.00;;;2.43;;
3343;SDS011;1685;53.104;8.228;2022-10-16T09:09:50;4.90;;;1.80;;
3343;SDS011;1685;53.104;8.228;2022-10-16T09:12:27;4.07;;;2.00;;
3343;SDS011;1685;53.104;8.228;2022-10-16T09:15:02;3.97;;;2.20;;
3343;SDS011;1685;53.104;8.228;2022-10-16T09:17:42;3.70;;;2.40;;
3343;SDS011;1685;53.104;8.228;2022-10-16T09:20:29;5.30;;;2.60;;
3343;SDS011;1685;53.104;8.228;2022-10-16T09:23:13;6.50;;;2.17;;
3343;SDS011;1685;53.104;8.228;2022-10-16T09:25:43;3.20;;;2.20;;
3343;SDS011;1685;53.104;8.228;2022-10-16T09:28:13;6.73;;;1.83;;
3343;SDS011;1685;53.104;8.228;2022-10-16T09:30:41;3.87;;;2.10;;
3343;SDS011;1685;53.104;8.228;2022-10-16T09:33:10;3.73;;;2.47;;
3343;SDS011;1685;53.104;8.228;2022-10-16T09:35:39;5.40;;;1.93;;
3343;SDS011;1685;53.104;8.228;2022-10-16T09:38:08;4.10;;;1.73;;
3343;SDS011;1685;53.104;8.228;2022-10-16T09:40:35;2.60;;;2.00;;
3343;SDS011;1685;53.104;8.228;2022-10-16T09:43:12;2.73;;;2.13;;
3343;SDS011;1685;53.104;8.228;2022-10-16T09:45:53;3.27;;;1.80;;
3343;SDS011;1685;53.104;8.228;2022-10-16T09:48:25;11.00;;;2.30;;
3343;SDS011;1685;53.104;8.228;2022-10-16T09:50:57;8.33;;;2.13;;
3343;SDS011;1685;53.104;8.228;2022-10-16T09:53:25;2.67;;;1.93;;
3343;SDS011;1685;53.104;8.228;2022-10-16T09:56:04;6.10;;;1.67;;
3343;SDS011;1685;53.104;8.228;2022-10-16T09:58:31;4.83;;;1.70;;
3343;SDS011;1685;53.104;8.228;2022-10-16T10:00:59;6.20;;;1.90;;
3343;SDS011;1685;53.104;8.228;2022-10-16T10:03:37;5.97;;;1.70;;
3343;SDS011;1685;53.104;8.228;2022-10-16T10:06:14;8.90;;;1.70;;
3343;SDS011;1685;53.104;8.228;2022-10-16T10:08:57;1.97;;;1.60;;
3343;SDS011;1685;53.104;8.228;2022-10-16T10:11:36;5.60;;;1.80;;
3343;SDS011;1685;53.104;8.228;2022-10-16T10:14:04;2.83;;;1.33;;
3343;SDS011;1685;53.104;8.228;2022-10-16T10:16:31;3.13;;;1.20;;
3343;SDS011;1685;53.104;8.228;2022-10-16T10:19:00;2.43;;;1.37;;
3343;SDS011;1685;53.104;8.228;2022-10-16T10:21:27;3.87;;;1.47;;
3343;SDS011;1685;53.104;8.228;2022-10-16T10:23:57;6.70;;;1.57;;
3343;SDS011;1685;53.104;8.228;2022-10-16T10:26:25;4.77;;;1.93;;
3343;SDS011;1685;53.104;8.228;2022-10-16T10:28:58;1.83;;;1.23;;
3343;SDS011;1685;53.104;8.228;2022-10-16T10:31:33;1.50;;;1.27;;
3343;SDS011;1685;53.104;8.228;2022-10-16T10:34:12;5.20;;;1.37;;
3343;SDS011;1685;53.104;8.228;2022-10-16T10:37:02;4.50;;;1.30;;
3343;SDS011;1685;53.104;8.228;2022-10-16T10:39:38;10.03;;;1.90;;
3343;SDS011;1685;53.104;8.228;2022-10-16T10:42:13;12.60;;;1.50;;
3343;SDS011;1685;53.104;8.228;2022-10-16T10:44:54;4.57;;;1.60;;
3343;SDS011;1685;53.104;8.228;2022-10-16T10:47:32;5.50;;;1.20;;
3343;SDS011;1685;53.104;8.228;2022-10-16T10:50:10;9.00;;;1.40;;
3343;SDS011;1685;53.104;8.228;2022-10-16T10:52:44;6.83;;;1.40;;
3343;SDS011;1685;53.104;8.228;2022-10-16T10:55:20;6.37;;;1.70;;
3343;SDS011;1685;53.104;8.228;2022-10-16T10:58:00;5.57;;;1.57;;
3343;SDS011;1685;53.104;8.228;2022-10-16T11:00:49;1.83;;;1.40;;
3343;SDS011;1685;53.104;8.228;2022-10-16T11:03:27;4.53;;;1.33;;
3343;SDS011;1685;53.104;8.228;2022-10-16T11:06:10;6.13;;;1.40;;
3343;SDS011;1685;53.104;8.228;2022-10-16T11:08:43;4.00;;;1.40;;
3343;SDS011;1685;53.104;8.228;2022-10-16T11:11:16;2.80;;;1.23;;
3343;SDS011;1685;53.104;8.228;2022-10-16T11:13:48;11.53;;;2.77;;
3343;SDS011;1685;53.104;8.228;2022-10-16T11:16:21;6.30;;;1.43;;
3343;SDS011;1685;53.104;8.228;2022-10-16T11:18:54;6.10;;;1.83;;
3343;SDS011;1685;53.104;8.228;2022-10-16T11:21:27;4.07;;;1.47;;
3343;SDS011;1685;53.104;8.228;2022-10-16T11:23:58;9.63;;;1.50;;
3343;SDS011;1685;53.104;8.228;2022-10-16T11:26:34;3.60;;;1.77;;
3343;SDS011;1685;53.104;8.228;2022-10-16T11:29:05;5.97;;;1.83;;
3343;SDS011;1685;53.104;8.228;2022-10-16T11:31:42;3.70;;;1.50;;
3343;SDS011;1685;53.104;8.228;2022-10-16T11:34:12;4.37;;;1.40;;
3343;SDS011;1685;53.104;8.228;2022-10-16T11:36:47;7.97;;;1.50;;
3343;SDS011;1685;53.104;8.228;2022-10-16T11:39:19;3.37;;;1.60;;
3343;SDS011;1685;53.104;8.228;2022-10-16T11:41:47;5.10;;;1.60;;
3343;SDS011;1685;53.104;8.228;2022-10-16T11:44:20;1.70;;;1.10;;
3343;SDS011;1685;53.104;8.228;2022-10-16T11:47:01;11.93;;;1.30;;
3343;SDS011;1685;53.104;8.228;2022-10-16T11:49:38;6.70;;;1.83;;
3343;SDS011;1685;53.104;8.228;2022-10-16T11:52:10;7.10;;;2.50;;
3343;SDS011;1685;53.104;8.228;2022-10-16T11:54:44;8.47;;;1.67;;
3343;SDS011;1685;53.104;8.228;2022-10-16T11:57:17;5.80;;;1.70;;
3343;SDS011;1685;53.104;8.228;2022-10-16T11:59:50;11.23;;;2.33;;
3343;SDS011;1685;53.104;8.228;2022-10-16T12:02:30;5.43;;;1.50;;
3343;SDS011;1685;53.104;8.228;2022-10-16T12:05:12;7.80;;;1.60;;
3343;SDS011;1685;53.104;8.228;2022-10-16T12:07:48;9.17;;;2.17;;
3343;SDS011;1685;53.104;8.228;2022-10-16T12:10:22;9.83;;;2.07;;
3343;SDS011;1685;53.104;8.228;2022-10-16T12:12:50;9.77;;;1.30;;
3343;SDS011;1685;53.104;8.228;2022-10-16T12:15:19;6.23;;;1.20;;
3343;SDS011;1685;53.104;8.228;2022-10-16T12:17:50;4.10;;;1.40;;
3343;SDS011;1685;53.104;8.228;2022-10-16T12:20:22;7.13;;;1.70;;
3343;SDS011;1685;53.104;8.228;2022-10-16T12:22:52;6.43;;;1.83;;
3343;SDS011;1685;53.104;8.228;2022-10-16T12:25:23;5.13;;;1.50;;
3343;SDS011;1685;53.104;8.228;2022-10-16T12:27:53;2.77;;;1.50;;
3343;SDS011;1685;53.104;8.228;2022-10-16T12:30:22;9.90;;;1.73;;
3343;SDS011;1685;53.104;8.228;2022-10-16T12:32:55;3.00;;;1.33;;
3343;SDS011;1685;53.104;8.228;2022-10-16T12:35:23;3.97;;;1.13;;
3343;SDS011;1685;53.104;8.228;2022-10-16T12:37:54;3.47;;;1.33;;
3343;SDS011;1685;53.104;8.228;2022-10-16T12:40:33;3.13;;;1.40;;
3343;SDS011;1685;53.104;8.228;2022-10-16T12:43:11;9.30;;;1.87;;
3343;SDS011;1685;53.104;8.228;2022-10-16T12:45:39;5.60;;;1.60;;
3343;SDS011;1685;53.104;8.228;2022-10-16T12:48:18;11.83;;;1.87;;
3343;SDS011;1685;53.104;8.228;2022-10-16T12:50:47;3.37;;;1.10;;
3343;SDS011;1685;53.104;8.228;2022-10-16T12:53:19;6.20;;;1.47;;
3343;SDS011;1685;53.104;8.228;2022-10-16T12:55:51;5.23;;;1.40;;
3343;SDS011;1685;53.104;8.228;2022-10-16T13:01:21;6.83;;;1.60;;
3343;SDS011;1685;53.104;8.228;2022-10-16T13:04:04;7.60;;;1.87;;
3343;SDS011;1685;53.104;8.228;2022-10-16T13:06:39;8.83;;;2.00;;
3343;SDS011;1685;53.104;8.228;2022-10-16T13:09:26;4.43;;;1.40;;
3343;SDS011;1685;53.104;8.228;2022-10-16T13:12:06;5.43;;;1.80;;
3343;SDS011;1685;53.104;8.228;2022-10-16T13:14:56;3.27;;;1.23;;
3343;SDS011;1685;53.104;8.228;2022-10-16T13:17:39;6.37;;;1.63;;
3343;SDS011;1685;53.104;8.228;2022-10-16T13:20:12;4.30;;;1.33;;
3343;SDS011;1685;53.104;8.228;2022-10-16T13:22:49;7.60;;;1.60;;
3343;SDS011;1685;53.104;8.228;2022-10-16T13:25:27;4.67;;;1.20;;
3343;SDS011;1685;53.104;8.228;2022-10-16T13:28:01;4.63;;;1.37;;
3343;SDS011;1685;53.104;8.228;2022-10-16T13:30:29;12.67;;;1.87;;
3343;SDS011;1685;53.104;8.228;2022-10-16T13:33:00;6.23;;;1.53;;
3343;SDS011;1685;53.104;8.228;2022-10-16T13:35:29;11.57;;;1.83;;
3343;SDS011;1685;53.104;8.228;2022-10-16T13:38:03;4.83;;;1.90;;
3343;SDS011;1685;53.104;8.228;2022-10-16T13:40:49;10.27;;;1.83;;
3343;SDS011;1685;53.104;8.228;2022-10-16T13:43:16;14.67;;;2.20;;
3343;SDS011;1685;53.104;8.228;2022-10-16T13:45:52;6.57;;;1.60;;
3343;SDS011;1685;53.104;8.228;2022-10-16T13:48:19;5.37;;;1.73;;
3343;SDS011;1685;53.104;8.228;2022-10-16T13:50:46;6.77;;;1.57;;
3343;SDS011;1685;53.104;8.228;2022-10-16T13:53:24;3.03;;;1.60;;
3343;SDS011;1685;53.104;8.228;2022-10-16T13:55:53;4.30;;;1.90;;
3343;SDS011;1685;53.104;8.228;2022-10-16T13:58:19;5.80;;;2.47;;
3343;SDS011;1685;53.104;8.228;2022-10-16T14:00:53;10.10;;;2.50;;
3343;SDS011;1685;53.104;8.228;2022-10-16T14:03:21;4.70;;;1.60;;
3343;SDS011;1685;53.104;8.228;2022-10-16T14:05:49;6.47;;;1.43;;
3343;SDS011;1685;53.104;8.228;2022-10-16T14:08:17;10.43;;;1.60;;
3343;SDS011;1685;53.104;8.228;2022-10-16T14:10:47;5.33;;;1.83;;
3343;SDS011;1685;53.104;8.228;2022-10-16T14:13:17;5.77;;;1.60;;
3343;SDS011;1685;53.104;8.228;2022-10-16T14:15:46;8.27;;;1.77;;
3343;SDS011;1685;53.104;8.228;2022-10-16T14:18:17;6.97;;;1.90;;
3343;SDS011;1685;53.104;8.228;2022-10-16T14:20:46;10.77;;;1.90;;
3343;SDS011;1685;53.104;8.228;2022-10-16T14:23:19;10.30;;;2.20;;
3343;SDS011;1685;53.104;8.228;2022-10-16T14:25:47;5.63;;;2.30;;
3343;SDS011;1685;53.104;8.228;2022-10-16T14:28:17;13.53;;;2.17;;
3343;SDS011;1685;53.104;8.228;2022-10-16T14:30:52;11.93;;;2.30;;
3343;SDS011;1685;53.104;8.228;2022-10-16T14:33:21;7.23;;;2.20;;
3343;SDS011;1685;53.104;8.228;2022-10-16T14:36:00;6.20;;;2.33;;
3343;SDS011;1685;53.104;8.228;2022-10-16T14:38:29;4.93;;;2.83;;
3343;SDS011;1685;53.104;8.228;2022-10-16T14:40:57;16.17;;;4.70;;
3343;SDS011;1685;53.104;8.228;2022-10-16T14:43:29;6.07;;;2.20;;
3343;SDS011;1685;53.104;8.228;2022-10-16T14:45:58;5.73;;;2.63;;
3343;SDS011;1685;53.104;8.228;2022-10-16T14:48:25;8.83;;;3.40;;
3343;SDS011;1685;53.104;8.228;2022-10-16T14:50:52;7.57;;;2.57;;
3343;SDS011;1685;53.104;8.228;2022-10-16T14:53:19;6.60;;;2.07;;
3343;SDS011;1685;53.104;8.228;2022-10-16T14:55:47;7.37;;;2.00;;
3343;SDS011;1685;53.104;8.228;2022-10-16T14:58:14;5.93;;;1.87;;
3343;SDS011;1685;53.104;8.228;2022-10-16T15:00:43;7.50;;;1.73;;
3343;SDS011;1685;53.104;8.228;2022-10-16T15:03:10;8.10;;;2.00;;
3343;SDS011;1685;53.104;8.228;2022-10-16T15:05:37;4.40;;;2.20;;
3343;SDS011;1685;53.104;8.228;2022-10-16T15:08:05;2.20;;;1.50;;
3343;SDS011;1685;53.104;8.228;2022-10-16T15:10:32;6.53;;;1.60;;
3343;SDS011;1685;53.104;8.228;2022-10-16T15:13:04;4.80;;;1.67;;
3343;SDS011;1685;53.104;8.228;2022-10-16T15:15:32;7.03;;;3.43;;
3343;SDS011;1685;53.104;8.228;2022-10-16T15:18:02;8.90;;;2.30;;
3343;SDS011;1685;53.104;8.228;2022-10-16T15:20:30;11.20;;;2.83;;
3343;SDS011;1685;53.104;8.228;2022-10-16T15:22:59;4.73;;;1.97;;
3343;SDS011;1685;53.104;8.228;2022-10-16T15:25:29;21.13;;;2.27;;
3343;SDS011;1685;53.104;8.228;2022-10-16T15:27:59;11.73;;;2.20;;
3343;SDS011;1685;53.104;8.228;2022-10-16T15:30:26;4.20;;;2.03;;
3343;SDS011;1685;53.104;8.228;2022-10-16T15:32:53;9.83;;;2.60;;
3343;SDS011;1685;53.104;8.228;2022-10-16T15:35:21;8.03;;;2.60;;